createdAt,value
2023-01-29T00:35:15.554Z,27.63
2023-01-29T00:36:15.603Z,26.88
2023-01-29T00:37:15.646Z,26.06
2023-01-29T00:38:15.709Z,25.72
2023-01-29T00:39:15.764Z,27.50
2023-01-29T00:40:16.059Z,27.60
2023-01-29T00:41:15.859Z,28.64
2023-01-29T00:42:15.913Z,26.91
2023-01-29T01:07:17.296Z,27.29
2023-01-29T01:28:18.231Z,26.87
2023-01-29T02:26:21.091Z,26.43
2023-01-29T02:27:21.127Z,27.20
2023-01-29T02:28:21.185Z,27.37
2023-01-29T02:29:21.246Z,27.33
2023-01-29T02:30:21.285Z,26.70
2023-01-29T02:31:21.451Z,28.00
2023-01-29T02:32:21.396Z,28.55
2023-01-29T02:33:21.453Z,26.71
2023-01-29T02:34:21.501Z,28.32
2023-01-29T02:35:21.547Z,27.62
2023-01-29T02:36:21.647Z,26.93
2023-01-29T02:37:21.655Z,27.56
2023-01-29T02:38:21.711Z,26.49
2023-01-29T02:39:21.773Z,26.39
2023-01-29T02:40:21.825Z,26.26
2023-01-29T02:41:21.881Z,26.59
2023-01-29T02:42:21.941Z,27.44
2023-01-29T02:43:22.002Z,28.11
2023-01-29T02:44:22.066Z,27.00
2023-01-29T03:41:25.136Z,29.21
2023-01-29T04:01:26.250Z,26.46
2023-01-29T04:02:26.295Z,28.25
2023-01-29T04:03:26.359Z,26.25
2023-01-29T04:04:26.433Z,26.22
2023-01-29T04:05:26.447Z,26.80
2023-01-29T04:06:26.507Z,27.90
2023-01-29T04:07:26.560Z,26.29
2023-01-29T04:08:26.611Z,27.36
2023-01-29T04:09:26.669Z,27.03
2023-01-29T04:10:26.726Z,26.89
2023-01-29T04:11:26.806Z,26.65
2023-01-29T04:12:26.845Z,26.04
2023-01-29T04:13:26.889Z,27.45
2023-01-29T04:14:26.952Z,25.74
2023-01-29T04:15:27.006Z,26.86
2023-01-29T04:16:27.081Z,27.25
2023-01-29T04:17:27.112Z,27.82
2023-01-29T04:18:27.168Z,27.68
2023-01-29T04:19:27.218Z,27.50
2023-01-29T04:20:27.288Z,26.08
2023-01-29T04:21:27.354Z,26.93
2023-01-29T04:22:27.396Z,26.68
2023-01-29T04:23:27.452Z,26.53
2023-01-29T04:24:27.535Z,26.40
2023-01-29T04:25:27.561Z,26.59
2023-01-29T04:26:27.630Z,27.55
2023-01-29T04:27:27.693Z,27.11
2023-01-29T04:28:27.740Z,28.31
2023-01-29T04:29:29.996Z,27.46
2023-01-29T04:30:27.836Z,28.37
2023-01-29T04:31:27.947Z,26.86
2023-01-29T04:32:27.953Z,28.83
2023-01-29T04:33:28.013Z,26.87
2023-01-29T04:34:28.067Z,26.78
2023-01-29T04:35:28.132Z,27.64
2023-01-29T04:36:28.181Z,28.62
2023-01-29T04:37:28.239Z,28.31
2023-01-29T04:38:28.299Z,28.01
2023-01-29T04:39:28.359Z,28.84
2023-01-29T04:40:28.413Z,27.25
2023-01-29T04:41:28.470Z,25.67
2023-01-29T04:42:28.514Z,26.90
2023-01-29T04:43:28.580Z,26.21
2023-01-29T04:44:28.617Z,27.66
2023-01-29T04:45:28.672Z,27.73
2023-01-29T04:46:28.727Z,26.33
2023-01-29T04:47:28.872Z,26.88
2023-01-29T04:48:28.835Z,27.18
2023-01-29T04:49:28.900Z,26.84
2023-01-29T04:50:28.952Z,27.70
2023-01-29T04:51:29.282Z,26.51
2023-01-29T04:52:29.059Z,26.77
2023-01-29T04:53:29.122Z,27.26
2023-01-29T04:54:29.166Z,25.68
2023-01-29T04:55:29.229Z,26.85
2023-01-29T04:56:29.276Z,27.35
2023-01-29T04:57:29.336Z,26.10
2023-01-29T04:58:29.391Z,27.60
2023-01-29T04:59:29.436Z,26.36
2023-01-29T05:00:29.499Z,26.24
2023-01-29T05:01:29.556Z,25.90
2023-01-29T05:28:31.080Z,27.32
2023-01-29T05:29:31.144Z,27.78
2023-01-29T05:30:31.173Z,28.24
2023-01-29T05:31:31.289Z,27.32
2023-01-29T05:32:31.271Z,28.88
2023-01-29T05:33:31.333Z,28.70
2023-01-29T05:34:31.389Z,26.43
2023-01-29T05:35:31.433Z,27.29
2023-01-29T05:36:31.487Z,26.18
2023-01-29T05:37:31.559Z,27.88
2023-01-29T05:38:31.620Z,27.15
2023-01-29T05:39:31.681Z,27.90
2023-01-29T05:40:31.726Z,28.17
2023-01-29T05:41:31.783Z,25.74
2023-01-29T05:42:31.845Z,25.79
2023-01-29T05:43:31.907Z,26.51
2023-01-29T05:44:31.963Z,27.28
2023-01-29T05:45:32.011Z,28.38
2023-01-29T05:46:32.101Z,27.76
2023-01-29T05:47:32.144Z,26.97
2023-01-29T05:48:32.186Z,27.07
2023-01-29T05:49:32.266Z,27.18
2023-01-29T05:50:32.320Z,27.95
2023-01-29T05:51:32.369Z,26.53
2023-01-29T05:52:32.443Z,27.68
2023-01-29T05:53:32.502Z,28.45
2023-01-29T05:54:32.551Z,26.10
2023-01-29T05:55:32.610Z,27.86
2023-01-29T05:56:32.672Z,27.93
2023-01-29T05:57:32.735Z,29.85
2023-01-29T05:58:32.813Z,27.18
2023-01-29T05:59:32.855Z,25.41
2023-01-29T06:00:32.916Z,27.81
2023-01-29T06:01:33.022Z,27.95
2023-01-29T06:02:33.055Z,29.66
2023-01-29T06:03:33.110Z,26.90
2023-01-29T06:04:33.156Z,28.26
2023-01-29T06:05:33.222Z,28.46
2023-01-29T06:06:33.277Z,27.94
2023-01-29T06:07:33.332Z,28.65
2023-01-29T06:08:33.405Z,26.57
2023-01-29T06:09:33.445Z,26.81
2023-01-29T06:10:33.486Z,27.91
2023-01-29T06:11:33.553Z,28.23
2023-01-29T06:12:33.606Z,28.23
2023-01-29T06:13:33.658Z,25.92
2023-01-29T06:14:33.718Z,26.40
2023-01-29T06:15:33.777Z,27.24
2023-01-29T06:16:33.918Z,26.84
2023-01-29T06:17:33.888Z,25.13
2023-01-29T06:18:33.944Z,26.19
2023-01-29T06:19:34.005Z,25.74
2023-01-29T06:20:34.050Z,25.92
2023-01-29T06:21:34.113Z,26.13
2023-01-29T06:22:34.184Z,26.10
2023-01-29T06:23:34.210Z,27.68
2023-01-29T06:24:34.260Z,27.38
2023-01-29T06:25:34.333Z,27.34
2023-01-29T06:26:34.375Z,26.49
2023-01-29T06:27:34.445Z,27.80
2023-01-29T06:28:34.499Z,26.39
2023-01-29T06:29:34.550Z,27.61
2023-01-29T06:30:34.638Z,26.18
2023-01-29T06:31:39.329Z,26.08
2023-01-29T06:32:35.771Z,26.26
2023-01-29T06:33:34.700Z,26.48
2023-01-29T06:34:34.693Z,27.39
2023-01-29T06:35:34.694Z,26.88
2023-01-29T06:36:34.709Z,26.76
2023-01-29T06:37:34.713Z,26.00
2023-01-29T06:38:34.735Z,27.48
2023-01-29T06:39:34.727Z,26.76
2023-01-29T06:40:34.733Z,27.61
2023-01-29T06:41:34.740Z,26.21
2023-01-29T06:42:34.750Z,26.83
2023-01-29T06:43:34.764Z,26.07
2023-01-29T06:44:34.747Z,26.10
2023-01-29T06:45:34.807Z,26.39
2023-01-29T06:46:34.833Z,26.00
2023-01-29T06:47:34.902Z,27.09
2023-01-29T06:48:34.941Z,26.64
2023-01-29T06:49:34.985Z,28.14
2023-01-29T06:50:35.043Z,27.66
2023-01-29T06:51:35.090Z,27.75
2023-01-29T06:52:35.155Z,26.68
2023-01-29T06:53:35.212Z,25.69
2023-01-29T06:54:35.254Z,27.52
2023-01-29T06:55:35.304Z,26.69
2023-01-29T06:56:35.363Z,26.21
2023-01-29T06:57:35.413Z,25.50
2023-01-29T06:58:35.474Z,26.40
2023-01-29T06:59:35.520Z,25.94
2023-01-29T07:00:35.614Z,25.46
2023-01-29T07:01:36.689Z,27.86
2023-01-29T07:02:35.687Z,28.11
2023-01-29T07:03:35.758Z,27.67
2023-01-29T07:04:35.801Z,26.03
2023-01-29T07:05:35.857Z,26.73
2023-01-29T07:06:35.918Z,26.87
2023-01-29T07:07:35.983Z,27.41
2023-01-29T07:08:36.039Z,27.04
2023-01-29T07:09:36.089Z,25.37
2023-01-29T07:10:36.154Z,26.75
2023-01-29T07:11:36.214Z,25.74
2023-01-29T07:12:36.827Z,27.44
2023-01-29T07:13:36.326Z,28.49
2023-01-29T07:14:36.380Z,25.80
2023-01-29T07:15:37.302Z,27.51
2023-01-29T07:16:36.523Z,28.05
2023-01-29T07:17:36.542Z,26.86
2023-01-29T07:18:36.596Z,28.60
2023-01-29T07:19:36.649Z,26.10
2023-01-29T07:20:36.700Z,25.40
2023-01-29T07:21:36.766Z,26.53
2023-01-29T07:22:36.813Z,26.39
2023-01-29T07:23:36.879Z,25.99
2023-01-29T07:24:36.924Z,26.87
2023-01-29T07:25:36.986Z,25.99
2023-01-29T07:26:37.048Z,26.54
2023-01-29T07:27:37.093Z,26.23
2023-01-29T07:28:37.152Z,27.09
2023-01-29T07:29:37.204Z,27.21
2023-01-29T07:30:37.266Z,27.80
2023-01-29T07:31:37.461Z,26.68
2023-01-29T07:32:37.379Z,25.50
2023-01-29T07:33:37.445Z,28.25
2023-01-29T07:34:37.502Z,28.19
2023-01-29T07:35:37.556Z,25.53
2023-01-29T07:36:37.625Z,27.45
2023-01-29T07:37:37.679Z,26.40
2023-01-29T07:38:37.738Z,26.09
2023-01-29T07:39:37.802Z,26.39
2023-01-29T07:40:37.855Z,28.15
2023-01-29T07:41:37.915Z,26.33
2023-01-29T07:42:37.985Z,26.24
2023-01-29T07:43:38.044Z,27.48
2023-01-29T07:44:38.090Z,26.79
2023-01-29T07:45:38.262Z,26.71
2023-01-29T07:46:38.213Z,28.28
2023-01-29T07:47:38.266Z,26.71
2023-01-29T07:48:38.308Z,26.12
2023-01-29T07:49:38.379Z,26.04
2023-01-29T07:50:38.446Z,25.97
2023-01-29T07:51:38.488Z,27.81
2023-01-29T07:52:38.551Z,28.85
2023-01-29T07:53:38.614Z,25.94
2023-01-29T08:36:41.079Z,29.11
2023-01-29T08:37:41.138Z,28.77
2023-01-29T08:38:41.182Z,28.16
2023-01-29T08:40:41.296Z,29.78
2023-01-29T08:41:41.358Z,28.46
2023-01-29T08:42:41.429Z,29.97
2023-01-29T08:43:41.462Z,30.38
2023-01-29T08:44:41.529Z,29.19
2023-01-29T08:45:41.610Z,29.50
2023-01-29T08:46:41.665Z,27.71
2023-01-29T08:47:41.711Z,32.25
2023-01-29T08:48:41.766Z,30.66
2023-01-29T08:49:41.827Z,30.75
2023-01-29T08:50:41.884Z,31.45
2023-01-29T08:51:41.931Z,30.02
2023-01-29T08:52:41.995Z,33.31
2023-01-29T08:53:42.861Z,30.67
2023-01-29T08:54:42.096Z,30.16
2023-01-29T08:55:42.168Z,30.42
2023-01-29T08:56:42.205Z,30.21
2023-01-29T08:57:42.275Z,30.06
2023-01-29T08:58:42.315Z,31.62
2023-01-29T08:59:42.351Z,30.69
2023-01-29T09:00:42.408Z,31.23
2023-01-29T09:01:42.456Z,31.00
2023-01-29T09:02:42.563Z,30.49
2023-01-29T09:03:42.559Z,30.98
2023-01-29T09:04:42.620Z,31.06
2023-01-29T09:05:42.681Z,30.34
2023-01-29T09:06:42.746Z,29.68
2023-01-29T09:07:42.787Z,30.79
2023-01-29T09:08:42.845Z,30.20
2023-01-29T09:09:42.894Z,31.53
2023-01-29T09:10:42.956Z,30.70
2023-01-29T09:11:42.996Z,34.19
2023-01-29T09:12:43.057Z,31.28
2023-01-29T09:13:43.084Z,32.18
2023-01-29T09:14:43.159Z,29.89
2023-01-29T09:15:43.204Z,29.87
2023-01-29T09:16:43.274Z,31.10
2023-01-29T09:17:43.306Z,31.40
2023-01-29T09:18:43.352Z,28.98
2023-01-29T09:19:43.421Z,30.80
2023-01-29T09:20:43.450Z,30.55
2023-01-29T09:21:43.499Z,30.70
2023-01-29T09:22:43.534Z,26.65
2023-01-29T09:23:43.598Z,30.18
2023-01-29T09:24:43.637Z,28.47
2023-01-29T09:25:43.705Z,30.61
2023-01-29T09:26:43.793Z,29.75
2023-01-29T09:27:43.788Z,29.44
2023-01-29T09:28:43.945Z,30.22
2023-01-29T09:29:43.873Z,29.77
2023-01-29T09:30:43.992Z,30.87
2023-01-29T09:31:44.063Z,28.93
2023-01-29T09:32:53.132Z,29.07
2023-01-29T09:33:45.035Z,29.31
2023-01-29T09:34:44.046Z,29.31
2023-01-29T09:35:44.076Z,29.38
2023-01-29T09:36:44.053Z,29.20
2023-01-29T09:37:44.068Z,29.15
2023-01-29T09:38:44.080Z,30.27
2023-01-29T09:39:44.077Z,29.63
2023-01-29T09:53:44.482Z,29.85
2023-01-29T09:54:44.521Z,29.08
2023-01-29T09:55:44.563Z,29.66
2023-01-29T09:56:44.620Z,29.38
2023-01-29T09:57:44.691Z,29.50
2023-01-29T09:58:44.710Z,29.38
2023-01-29T09:59:44.771Z,29.19
2023-01-29T10:00:44.809Z,28.92
2023-01-29T10:01:44.928Z,29.15
2023-01-29T10:02:44.922Z,29.41
2023-01-29T10:03:44.982Z,28.38
2023-01-29T10:04:45.044Z,29.82
2023-01-29T10:05:45.080Z,28.70
2023-01-29T10:06:45.107Z,29.51
2023-01-29T10:07:45.160Z,28.63
2023-01-29T10:08:45.218Z,26.63
2023-01-29T10:09:45.264Z,28.28
2023-01-29T10:10:45.317Z,27.12
2023-01-29T10:11:45.360Z,29.63
2023-01-29T10:12:45.412Z,28.93
2023-01-29T10:13:45.460Z,29.74
2023-01-29T10:14:45.499Z,30.14
2023-01-29T10:15:45.556Z,30.13
2023-01-29T10:16:45.655Z,31.27
2023-01-29T10:17:45.672Z,28.25
2023-01-29T10:18:45.704Z,30.38
2023-01-29T10:19:45.751Z,30.73
2023-01-29T10:20:45.791Z,31.32
2023-01-29T10:21:45.842Z,30.38
2023-01-29T10:22:45.896Z,29.29
2023-01-29T10:23:45.938Z,29.92
2023-01-29T10:24:45.985Z,29.59
2023-01-29T10:25:46.031Z,28.53
2023-01-29T10:26:46.096Z,30.46
2023-01-29T10:27:46.120Z,30.13
2023-01-29T10:28:46.218Z,29.67
2023-01-29T10:29:46.210Z,27.90
2023-01-29T10:30:46.392Z,29.05
2023-01-29T10:31:46.445Z,28.35
2023-01-29T10:32:46.337Z,29.90
2023-01-29T10:34:01.564Z,28.54
2023-01-29T10:35:46.393Z,28.93
2023-01-29T10:36:46.394Z,28.97
2023-01-29T10:38:46.391Z,30.49
2023-01-29T10:52:46.614Z,30.37
2023-01-29T10:53:46.658Z,30.66
2023-01-29T10:54:46.712Z,30.04
2023-01-29T10:55:46.742Z,29.77
2023-01-29T10:56:46.780Z,29.44
2023-01-29T10:57:46.875Z,28.98
2023-01-29T10:58:46.952Z,32.05
2023-01-29T10:59:46.903Z,30.97
2023-01-29T11:00:46.955Z,29.80
2023-01-29T11:01:47.044Z,28.57
2023-01-29T11:02:47.116Z,30.26
2023-01-29T11:03:47.088Z,30.75
2023-01-29T11:04:47.130Z,30.34
2023-01-29T11:05:47.173Z,29.58
2023-01-29T11:06:47.220Z,28.15
2023-01-29T11:07:47.341Z,31.48
2023-01-29T11:08:47.301Z,31.70
2023-01-29T11:09:47.340Z,30.89
2023-01-29T11:10:47.383Z,31.50
2023-01-29T11:11:47.423Z,33.57
2023-01-29T11:12:47.461Z,32.04
2023-01-29T11:13:47.507Z,31.66
2023-01-29T11:14:47.539Z,32.07
2023-01-29T11:15:47.592Z,32.34
2023-01-29T11:16:47.665Z,31.00
2023-01-29T11:17:47.691Z,31.85
2023-01-29T11:18:47.711Z,31.76
2023-01-29T11:19:47.760Z,31.52
2023-01-29T11:20:47.801Z,31.98
2023-01-29T11:21:47.826Z,33.82
2023-01-29T11:22:47.875Z,32.14
2023-01-29T11:24:47.953Z,33.28
2023-01-29T12:43:51.086Z,30.48
2023-01-29T12:44:51.126Z,32.46
2023-01-29T12:45:51.143Z,32.12
2023-01-29T12:46:51.202Z,31.75
2023-01-29T12:47:51.231Z,31.86
2023-01-29T12:48:51.273Z,31.89
2023-01-29T12:49:51.304Z,30.26
2023-01-29T12:50:51.349Z,30.44
2023-01-29T12:51:51.388Z,30.06
2023-01-29T12:52:51.421Z,29.93
2023-01-29T12:53:51.458Z,29.55
2023-01-29T12:54:51.489Z,28.53
2023-01-29T12:55:51.524Z,28.54
2023-01-29T12:56:51.568Z,30.86
2023-01-29T12:57:51.647Z,29.29
2023-01-29T12:58:51.647Z,31.81
2023-01-29T12:59:51.678Z,30.17
2023-01-29T13:00:51.836Z,28.72
2023-01-29T13:01:51.746Z,30.47
2023-01-29T13:02:51.797Z,30.28
2023-01-29T13:03:51.813Z,29.54
2023-01-29T13:04:51.864Z,30.39
2023-01-29T13:05:51.908Z,30.13
2023-01-29T13:06:51.942Z,28.90
2023-01-29T13:07:51.994Z,29.45
2023-01-29T13:08:52.026Z,27.80
2023-01-29T13:09:52.086Z,28.65
2023-01-29T13:10:52.106Z,27.72
2023-01-29T13:11:52.163Z,28.44
2023-01-29T13:12:52.195Z,27.21
2023-01-29T13:13:54.052Z,26.87
2023-01-29T13:14:52.268Z,26.85
2023-01-29T13:15:52.310Z,26.69
2023-01-29T13:16:52.347Z,26.11
2023-01-29T13:17:52.385Z,26.38
2023-01-29T13:18:52.423Z,25.71
2023-01-29T13:19:52.477Z,25.93
2023-01-29T13:20:52.504Z,27.86
2023-01-29T13:21:52.549Z,27.78
2023-01-29T13:22:52.591Z,27.17
2023-01-29T13:23:52.624Z,25.79
2023-01-29T13:25:04.258Z,26.18
2023-01-29T13:25:53.671Z,26.36
2023-01-29T13:26:52.666Z,26.41
2023-01-29T13:27:52.673Z,26.75
2023-01-29T13:28:52.666Z,25.98
2023-01-29T13:29:52.664Z,26.78
2023-01-29T13:30:52.697Z,25.63
2023-01-29T13:31:52.716Z,25.17
2023-01-29T13:32:52.677Z,25.18
2023-01-29T13:33:52.685Z,25.00
2023-01-29T13:34:52.679Z,26.66
2023-01-29T13:35:52.670Z,26.41
2023-01-29T13:36:52.674Z,25.75
2023-01-29T13:37:52.668Z,26.68
2023-01-29T13:38:52.678Z,26.47
2023-01-29T13:39:52.677Z,28.20
2023-01-29T13:40:52.689Z,26.39
2023-01-29T13:41:52.708Z,26.56
2023-01-29T13:42:52.746Z,27.42
2023-01-29T13:43:52.845Z,27.20
2023-01-29T13:44:52.873Z,26.07
2023-01-29T13:45:52.892Z,27.83
2023-01-29T13:46:52.912Z,27.70
2023-01-29T13:47:52.957Z,28.69
2023-01-29T13:48:52.994Z,27.74
2023-01-29T13:49:53.034Z,26.27
2023-01-29T13:50:53.078Z,26.45
2023-01-29T13:51:53.124Z,26.67
2023-01-29T13:52:53.174Z,26.16
2023-01-29T13:53:53.200Z,26.17
2023-01-29T13:54:53.252Z,26.03
2023-01-29T13:55:53.293Z,25.13
2023-01-29T13:56:53.357Z,26.10
2023-01-29T13:57:55.998Z,26.25
2023-01-29T13:58:53.383Z,28.24
2023-01-29T13:59:53.389Z,27.09
2023-01-29T14:00:53.426Z,26.50
2023-01-29T14:01:53.409Z,29.19
2023-01-29T14:02:53.418Z,28.32
2023-01-29T14:04:04.539Z,27.98
2023-01-29T14:04:54.431Z,28.29
2023-01-29T14:05:53.425Z,28.52
2023-01-29T14:06:53.444Z,28.58
2023-01-29T14:07:53.441Z,27.60
2023-01-29T14:08:53.449Z,26.46
2023-01-29T14:09:53.470Z,27.19
2023-01-29T14:10:53.465Z,25.71
2023-01-29T14:11:53.529Z,27.78
2023-01-29T14:12:53.492Z,26.94
2023-01-29T14:13:53.492Z,27.57
2023-01-29T14:14:53.502Z,25.88
2023-01-29T14:15:53.499Z,27.54
2023-01-29T14:16:53.525Z,26.66
2023-01-29T14:17:53.527Z,26.73
2023-01-29T14:18:53.517Z,26.17
2023-01-29T14:19:53.529Z,27.63
2023-01-29T14:20:53.556Z,27.27
2023-01-29T14:21:53.584Z,26.79
2023-01-29T14:22:53.640Z,26.46
2023-01-29T14:23:53.683Z,26.08
2023-01-29T14:24:53.725Z,27.24
2023-01-29T14:25:53.760Z,25.67
2023-01-29T14:26:53.841Z,26.23
2023-01-29T14:27:53.877Z,26.97
2023-01-29T14:28:53.900Z,27.32
2023-01-29T14:29:53.961Z,26.36
2023-01-29T14:30:54.065Z,27.87
2023-01-29T14:31:54.028Z,26.52
2023-01-29T14:32:54.095Z,27.37
2023-01-29T14:33:54.118Z,26.65
2023-01-29T14:34:54.267Z,26.25
2023-01-29T14:35:54.232Z,26.99
2023-01-29T14:36:54.262Z,25.44
2023-01-29T14:37:54.310Z,25.46
2023-01-29T14:38:54.353Z,25.60
2023-01-29T14:39:54.396Z,26.65
2023-01-29T14:40:54.444Z,28.59
2023-01-29T14:41:54.485Z,28.44
2023-01-29T14:42:54.532Z,27.12
2023-01-29T14:43:54.571Z,26.11
2023-01-29T14:44:54.622Z,25.00
2023-01-29T14:45:54.712Z,26.56
2023-01-29T14:46:54.705Z,25.94
2023-01-29T14:47:54.747Z,26.21
2023-01-29T14:48:54.795Z,27.67
2023-01-29T14:49:54.858Z,25.73
2023-01-29T14:50:54.893Z,27.11
2023-01-29T14:51:54.946Z,28.42
2023-01-29T14:52:54.967Z,25.99
2023-01-29T14:53:55.029Z,26.71
2023-01-29T14:54:55.073Z,27.64
2023-01-29T14:55:55.117Z,27.08
2023-01-29T14:56:55.153Z,28.51
2023-01-29T14:57:55.184Z,26.79
2023-01-29T14:58:56.246Z,25.55
2023-01-29T14:59:55.265Z,27.22
2023-01-29T15:00:55.311Z,26.36
2023-01-29T15:01:55.352Z,25.80
2023-01-29T15:03:01.730Z,28.08
2023-01-29T15:03:56.390Z,28.20
2023-01-29T15:04:55.403Z,28.18
2023-01-29T15:05:55.395Z,27.15
2023-01-29T15:06:55.397Z,26.07
2023-01-29T15:07:55.375Z,27.22
2023-01-29T15:08:55.393Z,26.66
2023-01-29T15:10:01.346Z,26.66
2023-01-29T15:10:56.405Z,26.87
2023-01-29T15:11:55.385Z,27.03
2023-01-29T15:12:55.371Z,26.89
2023-01-29T15:13:55.375Z,26.00
2023-01-29T15:14:55.382Z,25.72
2023-01-29T15:15:55.421Z,27.38
2023-01-29T15:16:55.357Z,26.31
2023-01-29T15:17:55.364Z,26.08
2023-01-29T15:18:55.359Z,26.18
2023-01-29T15:19:55.365Z,26.95
2023-01-29T15:20:55.352Z,27.37
2023-01-29T15:21:55.359Z,25.02
2023-01-29T15:22:55.351Z,25.81
2023-01-29T15:23:55.352Z,27.57
2023-01-29T15:24:55.380Z,28.37
2023-01-29T15:25:55.432Z,28.16
2023-01-29T15:26:55.460Z,28.12
2023-01-29T15:27:55.505Z,27.11
2023-01-29T15:29:03.276Z,27.97
2023-01-29T15:29:56.546Z,28.12
2023-01-29T15:30:55.587Z,28.33
2023-01-29T15:31:55.770Z,26.24
2023-01-29T15:32:55.577Z,26.82
2023-01-29T15:33:55.550Z,26.57
2023-01-29T15:34:55.540Z,26.71
2023-01-29T15:36:06.359Z,27.31
2023-01-29T15:37:55.597Z,27.82
2023-01-29T15:38:55.623Z,28.24
2023-01-29T15:39:55.627Z,28.79
2023-01-29T15:40:55.643Z,28.77
2023-01-29T15:41:55.645Z,30.21
2023-01-29T15:42:55.657Z,30.02
2023-01-29T15:43:55.662Z,27.71
2023-01-29T15:44:55.686Z,26.82
2023-01-29T15:45:55.670Z,28.47
2023-01-29T15:46:55.714Z,27.99
2023-01-29T15:47:55.773Z,27.71
2023-01-29T15:48:55.817Z,28.75
2023-01-29T15:49:55.866Z,28.31
2023-01-29T15:50:55.909Z,27.36
2023-01-29T15:51:55.958Z,27.23
2023-01-29T15:52:56.014Z,27.41
2023-01-29T15:53:56.047Z,27.57
2023-01-29T15:54:56.080Z,28.08
2023-01-29T15:55:56.139Z,28.38
2023-01-29T15:56:56.190Z,28.47
2023-01-29T15:57:56.238Z,28.06
2023-01-29T15:58:56.276Z,26.08
2023-01-29T15:59:56.324Z,26.31
2023-01-29T16:00:56.368Z,27.96
2023-01-29T16:01:56.456Z,28.88
2023-01-29T16:02:56.495Z,25.29
2023-01-29T16:03:59.057Z,26.00
2023-01-29T16:04:56.521Z,29.12
2023-01-29T16:05:56.509Z,27.35
2023-01-29T16:06:56.515Z,27.58
2023-01-29T16:07:56.520Z,26.84
2023-01-29T16:08:56.522Z,26.81
2023-01-29T16:09:56.521Z,27.54
2023-01-29T16:10:56.538Z,27.24
2023-01-29T16:11:56.543Z,28.43
2023-01-29T16:12:56.545Z,27.22
2023-01-29T16:13:56.559Z,27.23
2023-01-29T16:14:56.623Z,28.21
2023-01-29T16:15:56.594Z,27.26
2023-01-29T16:16:56.607Z,26.90
2023-01-29T16:17:56.575Z,27.53
2023-01-29T16:19:01.232Z,27.11
2023-01-29T16:19:56.577Z,27.36
2023-01-29T16:20:56.593Z,27.58
2023-01-29T16:21:56.598Z,28.04
2023-01-29T16:22:56.592Z,27.43
2023-01-29T16:23:56.594Z,28.90
2023-01-29T16:24:56.587Z,26.53
2023-01-29T16:25:56.600Z,27.11
2023-01-29T16:26:56.606Z,28.18
2023-01-29T16:27:56.600Z,26.40
2023-01-29T16:28:56.606Z,25.93
2023-01-29T16:29:56.621Z,26.64
2023-01-29T16:30:56.751Z,27.39
2023-01-29T16:31:56.742Z,27.16
2023-01-29T16:32:56.631Z,26.75
2023-01-29T16:33:56.669Z,26.69
2023-01-29T16:34:56.736Z,26.12
2023-01-29T16:35:56.772Z,26.57
2023-01-29T16:36:56.833Z,27.20
2023-01-29T16:37:56.874Z,27.20
2023-01-29T16:38:56.925Z,27.37
2023-01-29T17:10:58.557Z,28.28
2023-01-29T17:11:58.625Z,26.00
2023-01-29T17:12:58.679Z,26.28
2023-01-29T17:13:58.732Z,27.93
2023-01-29T17:14:58.785Z,27.35
2023-01-29T17:15:58.847Z,27.71
2023-01-29T17:16:58.894Z,28.67
2023-01-29T17:17:58.946Z,27.24
2023-01-29T17:18:58.992Z,26.91
2023-01-29T17:19:59.050Z,29.04
2023-01-29T17:20:59.101Z,27.78
2023-01-29T17:21:59.160Z,28.42
2023-01-29T17:22:59.225Z,27.57
2023-01-29T17:23:59.286Z,28.03
2023-01-29T17:24:59.339Z,26.56
2023-01-29T17:25:59.396Z,27.17
2023-01-29T17:26:59.440Z,28.26
2023-01-29T17:27:59.499Z,27.97
2023-01-29T17:28:59.538Z,27.47
2023-01-29T17:29:59.588Z,26.86
2023-01-29T17:31:06.202Z,26.91
2023-01-29T17:32:59.657Z,27.42
2023-01-29T17:33:59.657Z,27.58
2023-01-29T17:35:00.562Z,27.27
2023-01-29T17:35:59.667Z,26.52
2023-01-29T17:36:59.671Z,26.76
2023-01-29T17:37:59.671Z,26.37
2023-01-29T17:38:59.677Z,26.06
2023-01-29T17:39:59.665Z,27.22
2023-01-29T17:40:59.673Z,27.84
2023-01-29T17:41:59.674Z,26.86
2023-01-29T17:42:59.684Z,27.06
2023-01-29T17:43:59.700Z,26.95
2023-01-29T17:44:59.747Z,27.81
2023-01-29T17:45:59.847Z,28.02
2023-01-29T17:46:59.858Z,29.52
2023-01-29T17:47:59.900Z,27.75
2023-01-29T17:48:59.959Z,28.66
2023-01-29T17:50:00.004Z,28.28
2023-01-29T17:51:00.103Z,29.68
2023-01-29T17:52:00.150Z,28.55
2023-01-29T17:53:00.177Z,28.63
2023-01-29T17:54:00.225Z,28.66
2023-01-29T17:55:00.284Z,27.93
2023-01-29T17:56:00.329Z,27.26
2023-01-29T17:57:00.386Z,28.22
2023-01-29T17:58:00.431Z,28.15
2023-01-29T17:59:00.510Z,27.70
2023-01-29T18:00:00.538Z,28.82
2023-01-29T18:01:00.585Z,28.03
2023-01-29T18:02:00.700Z,28.33
2023-01-29T18:03:00.707Z,26.41
2023-01-29T18:04:00.789Z,27.54
2023-01-29T18:05:00.832Z,27.71
2023-01-29T18:06:00.859Z,27.02
2023-01-29T18:07:00.931Z,26.30
2023-01-29T18:08:00.967Z,28.11
2023-01-29T18:09:01.028Z,27.66
2023-01-29T18:10:01.059Z,27.45
2023-01-29T18:11:01.134Z,26.20
2023-01-29T18:12:01.188Z,27.03
2023-01-29T18:13:01.224Z,26.05
2023-01-29T18:14:07.541Z,26.07
2023-01-29T18:15:02.300Z,26.25
2023-01-29T18:16:02.160Z,26.60
2023-01-29T18:17:01.296Z,26.38
2023-01-29T18:18:01.285Z,26.42
2023-01-29T18:19:01.297Z,26.61
2023-01-29T18:20:01.283Z,26.61
2023-01-29T18:21:01.296Z,25.91
2023-01-29T18:22:01.303Z,26.09
2023-01-29T18:23:01.295Z,26.60
2023-01-29T18:24:01.306Z,26.33
2023-01-29T18:25:01.296Z,25.88
2023-01-29T18:26:01.301Z,26.91
2023-01-29T18:27:01.313Z,25.00
2023-01-29T18:28:01.350Z,25.25
2023-01-29T18:29:01.394Z,26.29
2023-01-29T18:30:01.456Z,27.76
2023-01-29T18:31:01.594Z,26.39
2023-01-29T18:32:01.690Z,25.00
2023-01-29T18:33:01.598Z,28.12
2023-01-29T18:34:01.661Z,28.28
2023-01-29T18:35:01.707Z,27.03
2023-01-29T18:36:01.759Z,26.26
2023-01-29T18:37:01.861Z,25.89
2023-01-29T18:38:01.857Z,25.93
2023-01-29T18:39:01.932Z,27.63
2023-01-29T18:40:01.994Z,27.34
2023-01-29T18:41:02.039Z,25.94
2023-01-29T18:42:02.136Z,26.72
2023-01-29T18:43:02.128Z,25.95
2023-01-29T18:44:02.211Z,26.40
2023-01-29T18:45:02.232Z,26.45
2023-01-29T18:46:02.346Z,25.83
2023-01-29T18:47:02.321Z,27.81
2023-01-29T18:48:02.372Z,27.07
2023-01-29T18:49:02.443Z,27.27
2023-01-29T18:50:02.487Z,27.95
2023-01-29T18:51:02.533Z,26.61
2023-01-29T18:52:02.581Z,28.20
2023-01-29T18:53:02.643Z,27.56
2023-01-29T18:54:02.684Z,26.60
2023-01-29T18:55:02.730Z,26.64
2023-01-29T18:56:02.788Z,26.96
2023-01-29T18:57:04.259Z,27.43
2023-01-29T18:58:29.741Z,27.59
2023-01-29T18:59:05.655Z,27.69
2023-01-29T19:00:03.616Z,27.75
2023-01-29T19:01:02.891Z,28.08
2023-01-29T19:02:02.909Z,28.64
2023-01-29T19:03:02.879Z,27.91
2023-01-29T19:04:02.881Z,26.83
2023-01-29T19:05:02.895Z,27.70
2023-01-29T19:06:02.900Z,27.65
2023-01-29T19:07:02.902Z,26.85
2023-01-29T19:08:02.909Z,25.20
2023-01-29T19:09:02.933Z,25.55
2023-01-29T19:10:02.908Z,25.90
2023-01-29T19:11:02.904Z,25.93
2023-01-29T19:12:02.935Z,26.56
2023-01-29T19:13:04.371Z,26.32
2023-01-29T19:14:02.923Z,27.62
2023-01-29T19:15:02.923Z,25.80
2023-01-29T19:16:02.932Z,26.91
2023-01-29T19:17:03.000Z,25.00
2023-01-29T19:18:02.938Z,26.59
2023-01-29T19:19:02.934Z,25.20
2023-01-29T19:20:02.935Z,25.46
2023-01-29T19:21:02.934Z,25.13
2023-01-29T19:22:02.934Z,27.62
2023-01-29T19:23:02.942Z,26.95
2023-01-29T19:24:02.951Z,26.50
2023-01-29T19:25:02.949Z,26.90
2023-01-29T19:26:02.947Z,26.70
2023-01-29T19:27:02.956Z,26.13
2023-01-29T19:28:02.976Z,25.78
2023-01-29T19:29:02.945Z,27.57
2023-01-29T19:30:02.951Z,27.03
2023-01-29T19:31:03.143Z,28.80
2023-01-29T19:32:02.989Z,27.74
2023-01-29T19:33:02.982Z,27.40
2023-01-29T19:34:02.965Z,27.00
2023-01-29T19:35:02.980Z,25.70
2023-01-29T19:36:02.983Z,26.47
2023-01-29T19:37:02.983Z,26.63
2023-01-29T19:38:02.978Z,26.98
2023-01-29T19:39:02.987Z,27.25
2023-01-29T19:40:03.003Z,27.91
2023-01-29T19:41:02.992Z,27.03
2023-01-29T19:42:02.994Z,25.62
2023-01-29T19:43:02.987Z,25.97
2023-01-29T19:44:02.979Z,27.23
2023-01-29T19:45:02.978Z,26.71
2023-01-29T19:46:02.999Z,26.41
2023-01-29T19:47:02.998Z,26.37
2023-01-29T19:48:02.991Z,28.73
2023-01-29T19:49:02.990Z,28.66
2023-01-29T19:50:02.991Z,28.85
2023-01-29T19:51:02.994Z,27.94
2023-01-29T19:52:02.985Z,27.10
2023-01-29T19:53:02.978Z,26.73